Time;durP1;ratioP1;P1;durP2;ratioP2;P2;SDS_P1;SDS_P2;PMS_P1;PMS_P2;Temp;Humidity;BMP_temperature;BMP_pressure;BME280_temperature;BME280_humidity;BME280_pressure;Samples;Min_cycle;Max_cycle;Signal;HPM_P1;HPM_P2
2022/02/28 00:21:15;;;;;;;2.90;2.62;;;;;;;;;;5174001;27;20084;-61
2022/02/28 00:23:42;;;;;;;2.70;2.50;;;;;;;;;;5180367;27;20611;-63
2022/02/28 00:26:08;;;;;;;3.35;2.67;;;;;;;;;;5180130;27;20078;-61
2022/02/28 00:28:34;;;;;;;2.90;2.70;;;;;;;;;;5180519;27;20448;-64
2022/02/28 00:31:00;;;;;;;2.83;2.62;;;;;;;;;;5180658;27;20082;-62
2022/02/28 00:33:26;;;;;;;2.85;2.55;;;;;;;;;;5180460;27;20185;-63
2022/02/28 00:35:52;;;;;;;2.95;2.65;;;;;;;;;;5180364;27;20090;-62
2022/02/28 00:38:18;;;;;;;2.58;2.30;;;;;;;;;;5180709;27;20740;-63
2022/02/28 00:40:44;;;;;;;3.12;2.80;;;;;;;;;;5180491;27;20072;-64
2022/02/28 00:43:10;;;;;;;3.25;2.70;;;;;;;;;;5180574;27;20058;-64
2022/02/28 00:45:36;;;;;;;3.97;2.90;;;;;;;;;;5180256;27;20109;-63
2022/02/28 00:48:02;;;;;;;2.60;2.40;;;;;;;;;;5161515;27;20069;-61
2022/02/28 00:50:29;;;;;;;3.10;2.60;;;;;;;;;;5180157;27;20070;-60
2022/02/28 00:52:55;;;;;;;2.83;2.53;;;;;;;;;;5180318;27;20073;-62
2022/02/28 00:55:21;;;;;;;2.55;2.35;;;;;;;;;;5180380;27;20473;-62
2022/02/28 00:57:47;;;;;;;3.00;2.70;;;;;;;;;;5180314;27;20073;-62
2022/02/28 01:00:16;;;;;;;2.83;2.55;;;;;;;;;;5201173;27;20143;-62
2022/02/28 01:02:42;;;;;;;2.55;2.28;;;;;;;;;;5201658;27;20093;-63
2022/02/28 01:05:09;;;;;;;3.62;2.70;;;;;;;;;;5201272;27;20436;-62
2022/02/28 01:07:35;;;;;;;4.28;2.60;;;;;;;;;;5182090;27;20123;-62
2022/02/28 01:10:04;;;;;;;2.60;2.40;;;;;;;;;;5201230;27;20076;-62
2022/02/28 01:12:30;;;;;;;2.60;2.40;;;;;;;;;;5182144;27;20074;-62
2022/02/28 01:14:56;;;;;;;2.60;2.40;;;;;;;;;;5201333;27;20070;-62
2022/02/28 01:17:22;;;;;;;2.60;2.40;;;;;;;;;;5201369;27;20177;-62
2022/02/28 01:19:50;;;;;;;3.70;2.22;;;;;;;;;;5201299;27;20053;-62
2022/02/28 01:22:16;;;;;;;2.85;2.60;;;;;;;;;;5201320;27;20149;-62
2022/02/28 01:24:42;;;;;;;3.37;2.30;;;;;;;;;;5201072;27;20069;-63
2022/02/28 01:27:09;;;;;;;2.67;2.37;;;;;;;;;;5201534;27;20081;-62
2022/02/28 01:29:35;;;;;;;2.97;2.67;;;;;;;;;;5201252;27;20175;-62
2022/02/28 01:32:03;;;;;;;2.70;2.50;;;;;;;;;;5201128;27;20066;-62
2022/02/28 01:34:29;;;;;;;2.50;2.30;;;;;;;;;;5201032;27;20066;-63
2022/02/28 01:36:56;;;;;;;2.65;2.45;;;;;;;;;;5181718;27;20065;-63
2022/02/28 01:39:22;;;;;;;2.97;2.67;;;;;;;;;;5200976;27;20607;-64
2022/02/28 01:41:48;;;;;;;3.78;2.67;;;;;;;;;;5201033;27;20095;-63
2022/02/28 01:44:14;;;;;;;2.92;2.60;;;;;;;;;;5200948;27;20073;-63
2022/02/28 01:46:40;;;;;;;2.65;2.45;;;;;;;;;;5200992;27;20573;-63
2022/02/28 01:49:07;;;;;;;3.20;2.90;;;;;;;;;;5200973;27;20484;-63
2022/02/28 01:51:37;;;;;;;3.33;2.60;;;;;;;;;;5200988;27;20081;-63
2022/02/28 01:54:04;;;;;;;2.58;2.35;;;;;;;;;;5200960;27;20121;-63
2022/02/28 01:56:31;;;;;;;2.78;2.40;;;;;;;;;;5181808;27;20070;-62
2022/02/28 01:58:57;;;;;;;2.90;2.40;;;;;;;;;;5201170;27;20094;-62
2022/02/28 02:01:23;;;;;;;2.50;2.30;;;;;;;;;;5200785;27;20088;-63
2022/02/28 02:03:49;;;;;;;3.58;2.85;;;;;;;;;;5200749;27;20066;-62
2022/02/28 02:06:18;;;;;;;2.72;2.35;;;;;;;;;;5200776;27;20469;-62
2022/02/28 02:08:44;;;;;;;2.95;2.65;;;;;;;;;;5200731;27;20081;-63
2022/02/28 02:11:10;;;;;;;2.53;2.33;;;;;;;;;;5201208;27;20084;-62
2022/02/28 02:13:36;;;;;;;2.50;2.30;;;;;;;;;;5200889;27;20097;-62
2022/02/28 02:16:03;;;;;;;2.95;2.65;;;;;;;;;;5201346;27;20081;-62
2022/02/28 02:18:29;;;;;;;2.92;2.60;;;;;;;;;;5181638;27;20081;-63
2022/02/28 02:20:55;;;;;;;3.00;2.70;;;;;;;;;;5200696;27;20105;-62
2022/02/28 02:23:22;;;;;;;2.90;2.60;;;;;;;;;;5200728;27;20085;-63
2022/02/28 02:25:48;;;;;;;4.07;2.87;;;;;;;;;;5200608;27;20088;-62
2022/02/28 02:28:16;;;;;;;3.67;3.22;;;;;;;;;;5200799;27;20182;-62
2022/02/28 02:30:50;;;;;;;3.28;2.90;;;;;;;;;;5200842;27;20093;-62
2022/02/28 02:33:17;;;;;;;2.65;2.42;;;;;;;;;;5200880;27;20093;-65
2022/02/28 02:35:55;;;;;;;3.03;2.72;;;;;;;;;;5200846;27;20061;-61
2022/02/28 02:38:22;;;;;;;3.15;2.87;;;;;;;;;;5200696;27;20058;-61
2022/02/28 02:40:48;;;;;;;3.00;2.70;;;;;;;;;;5200493;27;20110;-61
2022/02/28 02:43:15;;;;;;;3.55;2.80;;;;;;;;;;5200634;27;20192;-59
2022/02/28 02:45:41;;;;;;;3.00;2.70;;;;;;;;;;5200722;27;20097;-60
2022/02/28 02:48:11;;;;;;;3.80;3.40;;;;;;;;;;5200576;27;20074;-60
2022/02/28 02:50:37;;;;;;;3.42;3.12;;;;;;;;;;5181723;27;20193;-63
2022/02/28 02:53:03;;;;;;;3.67;3.10;;;;;;;;;;5200601;27;20502;-61
2022/02/28 02:55:29;;;;;;;4.37;3.83;;;;;;;;;;5200665;27;20069;-62
2022/02/28 02:57:55;;;;;;;4.50;3.85;;;;;;;;;;5200546;27;20158;-62
2022/02/28 03:00:21;;;;;;;5.12;4.22;;;;;;;;;;5181405;27;20073;-62
2022/02/28 03:02:47;;;;;;;3.83;2.50;;;;;;;;;;5200541;27;20589;-62
2022/02/28 03:05:13;;;;;;;3.10;2.80;;;;;;;;;;5181210;27;20062;-62
2022/02/28 03:07:39;;;;;;;2.80;2.60;;;;;;;;;;5181565;27;20426;-60
2022/02/28 03:10:05;;;;;;;3.35;2.80;;;;;;;;;;5181632;27;20078;-62
2022/02/28 03:12:31;;;;;;;3.05;2.75;;;;;;;;;;5198756;27;20069;-62
2022/02/28 03:14:57;;;;;;;3.30;3.00;;;;;;;;;;5200329;27;20190;-62
2022/02/28 03:17:23;;;;;;;3.37;3.08;;;;;;;;;;5200509;27;20113;-61
2022/02/28 03:19:49;;;;;;;3.20;2.90;;;;;;;;;;5200471;27;20492;-61
2022/02/28 03:22:15;;;;;;;3.28;2.97;;;;;;;;;;5200482;27;20582;-62
2022/02/28 03:24:41;;;;;;;3.75;3.33;;;;;;;;;;5181090;27;20093;-61
2022/02/28 03:27:07;;;;;;;3.58;3.12;;;;;;;;;;5200468;27;20085;-62
2022/02/28 03:29:33;;;;;;;3.40;3.10;;;;;;;;;;5200461;27;20176;-62
2022/02/28 03:31:59;;;;;;;2.95;2.70;;;;;;;;;;5200443;27;20082;-62
2022/02/28 03:34:26;;;;;;;3.55;2.80;;;;;;;;;;5181167;27;20603;-62
2022/02/28 03:36:52;;;;;;;4.70;3.70;;;;;;;;;;5163831;27;20092;-62
2022/02/28 03:39:18;;;;;;;3.78;3.00;;;;;;;;;;5200259;27;20223;-62
2022/02/28 03:41:44;;;;;;;3.20;2.90;;;;;;;;;;5200476;27;20179;-61
2022/02/28 03:44:10;;;;;;;3.50;3.20;;;;;;;;;;5200357;27;20065;-64
2022/02/28 03:46:36;;;;;;;3.67;3.28;;;;;;;;;;5200375;27;20621;-64
2022/02/28 03:49:02;;;;;;;3.85;3.28;;;;;;;;;;5200705;27;20070;-61
2022/02/28 03:51:28;;;;;;;4.93;3.55;;;;;;;;;;5182054;27;20115;-61
2022/02/28 03:53:54;;;;;;;3.92;3.53;;;;;;;;;;5200039;27;20061;-62
2022/02/28 03:56:20;;;;;;;3.45;3.05;;;;;;;;;;5200519;27;20082;-62
2022/02/28 03:58:46;;;;;;;3.40;3.10;;;;;;;;;;5200475;27;20413;-61
2022/02/28 04:01:12;;;;;;;4.32;3.35;;;;;;;;;;5181378;27;20089;-62
2022/02/28 04:03:38;;;;;;;3.60;3.10;;;;;;;;;;5200130;27;20491;-61
2022/02/28 04:06:04;;;;;;;4.00;3.12;;;;;;;;;;5199534;27;20194;-61
2022/02/28 04:08:30;;;;;;;4.53;3.35;;;;;;;;;;5199024;27;20500;-62
2022/02/28 04:10:56;;;;;;;3.67;3.05;;;;;;;;;;5200433;27;20094;-61
2022/02/28 04:13:22;;;;;;;3.72;3.17;;;;;;;;;;5200259;27;20170;-59
2022/02/28 04:15:48;;;;;;;4.53;2.85;;;;;;;;;;5200384;27;20175;-61
2022/02/28 04:18:14;;;;;;;4.22;3.58;;;;;;;;;;5200476;27;20174;-61
2022/02/28 04:20:40;;;;;;;3.30;2.97;;;;;;;;;;5200323;27;20073;-61
2022/02/28 04:23:06;;;;;;;3.55;3.15;;;;;;;;;;5200201;27;20163;-60
2022/02/28 04:25:32;;;;;;;3.47;3.03;;;;;;;;;;5200718;27;20572;-62
2022/02/28 04:27:58;;;;;;;3.50;3.17;;;;;;;;;;5201513;27;20093;-62
2022/02/28 04:30:24;;;;;;;4.68;3.10;;;;;;;;;;5201428;27;20181;-63
2022/02/28 04:32:50;;;;;;;3.28;2.97;;;;;;;;;;5201559;27;20492;-62
2022/02/28 04:35:16;;;;;;;3.60;2.95;;;;;;;;;;5201460;27;20097;-61
2022/02/28 04:37:43;;;;;;;3.30;2.90;;;;;;;;;;5201533;27;20519;-61
2022/02/28 04:40:09;;;;;;;4.47;3.67;;;;;;;;;;5181958;27;20175;-63
2022/02/28 04:42:35;;;;;;;3.78;3.35;;;;;;;;;;5201538;27;20393;-61
2022/02/28 04:45:01;;;;;;;3.50;3.17;;;;;;;;;;5201369;27;20085;-61
2022/02/28 04:47:27;;;;;;;4.32;3.90;;;;;;;;;;5201437;27;20070;-62
2022/02/28 04:49:54;;;;;;;5.00;4.50;;;;;;;;;;5201434;27;20085;-62
2022/02/28 04:52:20;;;;;;;3.75;3.45;;;;;;;;;;5201437;27;20065;-61
2022/02/28 04:54:46;;;;;;;4.10;3.55;;;;;;;;;;5201290;27;20409;-62
2022/02/28 04:57:12;;;;;;;4.25;3.45;;;;;;;;;;5201672;27;20086;-61
2022/02/28 04:59:38;;;;;;;3.45;3.00;;;;;;;;;;5201283;27;20160;-61
2022/02/28 05:02:04;;;;;;;3.42;2.70;;;;;;;;;;5201303;27;20421;-61
2022/02/28 05:04:30;;;;;;;3.72;3.35;;;;;;;;;;5181736;27;20081;-61
2022/02/28 05:06:56;;;;;;;4.03;3.17;;;;;;;;;;5201307;27;20097;-61
2022/02/28 05:09:22;;;;;;;4.62;3.80;;;;;;;;;;5201074;27;20104;-62
2022/02/28 05:11:48;;;;;;;4.60;4.07;;;;;;;;;;5182099;27;20161;-61
2022/02/28 05:14:14;;;;;;;5.78;4.60;;;;;;;;;;5201035;27;20089;-60
2022/02/28 05:16:41;;;;;;;4.57;4.07;;;;;;;;;;5201173;27;20086;-62
2022/02/28 05:19:08;;;;;;;5.70;4.00;;;;;;;;;;5201144;27;20085;-61
2022/02/28 05:21:35;;;;;;;4.72;4.10;;;;;;;;;;5181871;27;20069;-62
2022/02/28 05:24:01;;;;;;;4.40;4.00;;;;;;;;;;5201005;27;20081;-62
2022/02/28 05:26:28;;;;;;;3.90;3.50;;;;;;;;;;5201069;27;20092;-61
2022/02/28 05:28:54;;;;;;;3.78;3.30;;;;;;;;;;5201296;27;20429;-62
2022/02/28 05:31:20;;;;;;;4.37;3.20;;;;;;;;;;5201371;27;20096;-62
2022/02/28 05:33:46;;;;;;;3.45;3.08;;;;;;;;;;5200964;27;20086;-63
2022/02/28 05:36:12;;;;;;;3.60;3.30;;;;;;;;;;5200930;27;20174;-61
2022/02/28 05:38:38;;;;;;;3.67;3.37;;;;;;;;;;5181342;27;20078;-63
2022/02/28 05:41:05;;;;;;;4.40;3.92;;;;;;;;;;5201035;27;20105;-62
2022/02/28 05:43:31;;;;;;;4.93;3.45;;;;;;;;;;5200926;27;20094;-62
2022/02/28 05:45:57;;;;;;;4.10;3.55;;;;;;;;;;5200782;27;20080;-63
2022/02/28 05:48:23;;;;;;;4.05;3.55;;;;;;;;;;5201208;27;20081;-61
2022/02/28 05:50:49;;;;;;;4.18;3.47;;;;;;;;;;5201156;27;20090;-62
2022/02/28 05:53:15;;;;;;;5.00;3.45;;;;;;;;;;5201003;27;20232;-61
2022/02/28 05:55:41;;;;;;;4.20;3.53;;;;;;;;;;5164154;27;20105;-62
2022/02/28 05:58:07;;;;;;;3.97;3.58;;;;;;;;;;5200986;27;20076;-60
2022/02/28 06:00:33;;;;;;;4.50;4.10;;;;;;;;;;5200967;27;20176;-64
2022/02/28 06:02:59;;;;;;;4.12;3.60;;;;;;;;;;5200963;27;20568;-62
2022/02/28 06:05:25;;;;;;;3.90;3.30;;;;;;;;;;5200556;27;20112;-61
2022/02/28 06:07:51;;;;;;;4.43;4.03;;;;;;;;;;5200934;27;20617;-64
2022/02/28 06:10:17;;;;;;;5.00;4.50;;;;;;;;;;5201101;27;20076;-63
2022/02/28 06:12:43;;;;;;;4.60;4.12;;;;;;;;;;5201129;27;20073;-62
2022/02/28 06:15:10;;;;;;;5.25;4.28;;;;;;;;;;5200825;27;20074;-64
2022/02/28 06:17:36;;;;;;;5.25;4.45;;;;;;;;;;5200827;27;20081;-61
2022/02/28 06:20:04;;;;;;;5.10;4.12;;;;;;;;;;5181624;27;20093;-63
2022/02/28 06:22:30;;;;;;;5.10;4.60;;;;;;;;;;5200927;27;20504;-63
2022/02/28 06:24:56;;;;;;;5.95;4.10;;;;;;;;;;5200601;27;20151;-62
2022/02/28 06:27:24;;;;;;;4.95;4.45;;;;;;;;;;5200699;27;20436;-63
2022/02/28 06:29:51;;;;;;;5.35;4.55;;;;;;;;;;5200811;27;20089;-62
2022/02/28 06:32:19;;;;;;;7.25;4.78;;;;;;;;;;5163932;27;20065;-63
2022/02/28 06:34:45;;;;;;;5.30;4.80;;;;;;;;;;5200655;27;20078;-63
2022/02/28 06:37:11;;;;;;;6.43;5.03;;;;;;;;;;5200732;27;20195;-62
2022/02/28 06:39:37;;;;;;;7.80;5.35;;;;;;;;;;5200364;27;20162;-61
2022/02/28 06:42:04;;;;;;;5.60;4.70;;;;;;;;;;5200573;27;20500;-63
2022/02/28 06:44:30;;;;;;;5.68;5.07;;;;;;;;;;5200369;27;20540;-63
2022/02/28 06:46:57;;;;;;;5.75;4.12;;;;;;;;;;5200617;27;20081;-62
2022/02/28 06:49:23;;;;;;;5.35;4.80;;;;;;;;;;5200292;27;20646;-63
2022/02/28 06:51:49;;;;;;;9.98;5.57;;;;;;;;;;5200541;27;20093;-63
2022/02/28 06:54:15;;;;;;;5.62;5.05;;;;;;;;;;5200483;27;20505;-62
2022/02/28 06:56:42;;;;;;;8.10;5.78;;;;;;;;;;5200512;27;20085;-63
2022/02/28 06:59:08;;;;;;;6.93;5.55;;;;;;;;;;5200551;27;20413;-63
2022/02/28 07:01:36;;;;;;;7.28;6.40;;;;;;;;;;5200823;27;20084;-62
2022/02/28 07:04:03;;;;;;;7.37;6.50;;;;;;;;;;5200474;27;20078;-62
2022/02/28 07:06:29;;;;;;;8.60;7.35;;;;;;;;;;5181184;27;20077;-63
2022/02/28 07:08:55;;;;;;;8.63;7.53;;;;;;;;;;5200450;27;20154;-64
2022/02/28 07:11:21;;;;;;;9.32;7.60;;;;;;;;;;5200456;27;20469;-63
2022/02/28 07:13:48;;;;;;;8.10;6.65;;;;;;;;;;5200386;27;20105;-63
2022/02/28 07:16:17;;;;;;;7.50;6.32;;;;;;;;;;5200626;27;20524;-64
2022/02/28 07:18:43;;;;;;;8.23;6.82;;;;;;;;;;5200538;27;20107;-64
2022/02/28 07:21:09;;;;;;;8.52;6.60;;;;;;;;;;5200460;27;20092;-62
2022/02/28 07:23:35;;;;;;;7.28;6.53;;;;;;;;;;5200472;27;20539;-62
2022/02/28 07:26:01;;;;;;;8.02;6.68;;;;;;;;;;5200428;27;20085;-63
2022/02/28 07:28:27;;;;;;;7.30;5.82;;;;;;;;;;5200449;27;20529;-60
2022/02/28 07:30:53;;;;;;;8.05;6.12;;;;;;;;;;5181092;27;20587;-63
2022/02/28 07:33:20;;;;;;;5.93;5.32;;;;;;;;;;5181240;27;20077;-60
2022/02/28 07:35:46;;;;;;;7.57;5.47;;;;;;;;;;5200303;27;20082;-62
2022/02/28 07:38:12;;;;;;;6.53;5.50;;;;;;;;;;5181355;27;20103;-62
2022/02/28 07:40:39;;;;;;;6.82;5.35;;;;;;;;;;5146632;27;20109;-61
2022/02/28 07:43:05;;;;;;;7.20;6.10;;;;;;;;;;5200151;27;20160;-61
2022/02/28 07:45:32;;;;;;;6.43;5.78;;;;;;;;;;5200123;27;20101;-61
2022/02/28 07:47:59;;;;;;;6.95;6.25;;;;;;;;;;5200650;27;20088;-61
2022/02/28 07:50:25;;;;;;;6.85;5.82;;;;;;;;;;5200656;27;20081;-61
2022/02/28 07:52:51;;;;;;;8.93;6.45;;;;;;;;;;5200493;27;20201;-61
2022/02/28 07:55:17;;;;;;;6.85;6.10;;;;;;;;;;5181292;27;20070;-61
2022/02/28 07:57:43;;;;;;;7.32;5.90;;;;;;;;;;5200664;27;20386;-61
2022/02/28 08:00:10;;;;;;;6.55;5.85;;;;;;;;;;5200794;27;20473;-62
2022/02/28 08:02:36;;;;;;;8.95;6.22;;;;;;;;;;5201810;27;20861;-63
2022/02/28 08:05:02;;;;;;;6.87;6.00;;;;;;;;;;5182139;27;20174;-62
2022/02/28 08:07:28;;;;;;;9.27;6.40;;;;;;;;;;5201550;27;20081;-63
2022/02/28 08:09:54;;;;;;;7.05;6.00;;;;;;;;;;5201414;27;20109;-62
2022/02/28 08:12:20;;;;;;;6.95;6.25;;;;;;;;;;5201610;27;20101;-62
2022/02/28 08:14:46;;;;;;;8.45;5.82;;;;;;;;;;5201544;27;20123;-62
2022/02/28 08:17:12;;;;;;;7.43;6.28;;;;;;;;;;5201667;27;20082;-61
2022/02/28 08:19:38;;;;;;;8.75;6.87;;;;;;;;;;5201586;27;20111;-60
2022/02/28 08:22:04;;;;;;;7.40;6.45;;;;;;;;;;5182313;27;20167;-60
2022/02/28 08:24:30;;;;;;;6.53;5.62;;;;;;;;;;5164979;27;20066;-61
2022/02/28 08:26:56;;;;;;;7.85;6.25;;;;;;;;;;5182433;27;20073;-61
2022/02/28 08:29:22;;;;;;;8.40;5.93;;;;;;;;;;5201345;27;20062;-63
2022/02/28 08:31:48;;;;;;;8.45;6.50;;;;;;;;;;5201458;27;20184;-62
2022/02/28 08:34:16;;;;;;;7.80;6.45;;;;;;;;;;5201634;27;20073;-63
2022/02/28 08:36:42;;;;;;;8.10;6.12;;;;;;;;;;5201431;27;20420;-62
2022/02/28 08:39:08;;;;;;;7.37;5.80;;;;;;;;;;5201393;27;20799;-61
2022/02/28 08:41:36;;;;;;;6.55;5.62;;;;;;;;;;5201230;27;20101;-63
2022/02/28 08:44:03;;;;;;;7.18;6.00;;;;;;;;;;5201277;27;20066;-62
2022/02/28 08:46:29;;;;;;;7.22;6.22;;;;;;;;;;5201214;27;20088;-63
2022/02/28 08:48:55;;;;;;;8.95;6.07;;;;;;;;;;5201262;27;20089;-63
2022/02/28 08:51:21;;;;;;;6.32;5.70;;;;;;;;;;5181921;27;20437;-62
2022/02/28 08:53:47;;;;;;;6.72;5.78;;;;;;;;;;5201392;27;20096;-63
2022/02/28 08:56:13;;;;;;;7.20;5.32;;;;;;;;;;5201222;27;20127;-63
2022/02/28 08:58:39;;;;;;;6.50;5.65;;;;;;;;;;5201341;27;20085;-63
2022/02/28 09:01:05;;;;;;;8.80;5.87;;;;;;;;;;5201436;27;20076;-63
2022/02/28 09:03:31;;;;;;;7.40;6.40;;;;;;;;;;5201341;27;20077;-63
2022/02/28 09:05:57;;;;;;;7.70;6.25;;;;;;;;;;5164232;27;20081;-64
2022/02/28 09:08:23;;;;;;;6.78;6.07;;;;;;;;;;5201199;27;20080;-63
2022/02/28 09:10:49;;;;;;;8.10;5.68;;;;;;;;;;5181765;27;20090;-62
2022/02/28 09:13:16;;;;;;;6.68;5.90;;;;;;;;;;5182528;27;20105;-65
2022/02/28 09:15:42;;;;;;;6.00;5.40;;;;;;;;;;5164562;27;20108;-65
2022/02/28 09:18:08;;;;;;;7.65;6.25;;;;;;;;;;5192457;27;20156;-63
2022/02/28 09:20:35;;;;;;;6.85;6.15;;;;;;;;;;5200883;27;20159;-61
2022/02/28 09:23:01;;;;;;;7.20;6.20;;;;;;;;;;5182021;27;20073;-63
2022/02/28 09:25:28;;;;;;;7.22;6.53;;;;;;;;;;5201091;27;20488;-62
2022/02/28 09:27:54;;;;;;;7.70;5.93;;;;;;;;;;5201269;27;20085;-63
2022/02/28 09:30:20;;;;;;;7.53;6.20;;;;;;;;;;5201340;27;20093;-62
2022/02/28 09:32:47;;;;;;;8.25;5.95;;;;;;;;;;5201158;27;20073;-63
2022/02/28 09:35:13;;;;;;;6.90;5.62;;;;;;;;;;5200903;27;20177;-62
2022/02/28 09:37:39;;;;;;;6.50;5.80;;;;;;;;;;5201031;27;20129;-62
2022/02/28 09:40:06;;;;;;;6.55;5.85;;;;;;;;;;5201105;27;20074;-63
2022/02/28 09:42:33;;;;;;;7.37;5.82;;;;;;;;;;5201006;27;20183;-63
2022/02/28 09:44:59;;;;;;;7.45;6.37;;;;;;;;;;5199100;27;20160;-62
2022/02/28 09:47:27;;;;;;;7.70;6.25;;;;;;;;;;5201041;27;20084;-63
2022/02/28 09:49:53;;;;;;;8.02;6.10;;;;;;;;;;5182185;27;20096;-63
2022/02/28 09:52:19;;;;;;;8.15;6.12;;;;;;;;;;5181651;27;20098;-63
2022/02/28 09:54:45;;;;;;;7.07;6.37;;;;;;;;;;5200856;27;20070;-62
2022/02/28 09:57:14;;;;;;;9.13;7.15;;;;;;;;;;5200893;27;20190;-63
2022/02/28 09:59:40;;;;;;;7.35;6.37;;;;;;;;;;5200898;27;20096;-63
2022/02/28 10:02:06;;;;;;;6.78;6.05;;;;;;;;;;5201083;27;20512;-64
2022/02/28 10:04:32;;;;;;;8.35;6.93;;;;;;;;;;5198935;27;20101;-64
2022/02/28 10:06:59;;;;;;;7.80;6.78;;;;;;;;;;5200886;27;20077;-64
2022/02/28 10:09:26;;;;;;;8.65;6.55;;;;;;;;;;5200857;27;20066;-63
2022/02/28 10:11:54;;;;;;;10.82;7.10;;;;;;;;;;5200798;27;20077;-63
2022/02/28 10:14:21;;;;;;;8.85;6.95;;;;;;;;;;5181351;27;20092;-63
2022/02/28 10:16:50;;;;;;;8.20;7.07;;;;;;;;;;5163952;27;20496;-66
2022/02/28 10:19:29;;;;;;;9.80;6.87;;;;;;;;;;5181525;27;20070;-65
2022/02/28 10:22:15;;;;;;;7.93;6.82;;;;;;;;;;5200668;27;20077;-64
2022/02/28 10:24:42;;;;;;;8.00;6.78;;;;;;;;;;5179221;27;20109;-64
2022/02/28 10:27:09;;;;;;;7.05;6.35;;;;;;;;;;5200540;27;20497;-64
2022/02/28 10:29:42;;;;;;;8.15;7.35;;;;;;;;;;5180917;27;20180;-66
2022/02/28 10:32:11;;;;;;;8.68;7.53;;;;;;;;;;5200649;27;20082;-65
2022/02/28 10:35:59;;;;;;;8.70;6.70;;;;;;;;;;5200298;27;20182;-65
2022/02/28 10:37:26;;;;;;;8.80;7.87;;;;;;;;;;5178515;27;20195;-65
2022/02/28 10:39:59;;;;;;;10.18;8.15;;;;;;;;;;5180684;27;20053;-65
2022/02/28 10:42:50;;;;;;;8.73;7.82;;;;;;;;;;5200424;27;20069;-65
2022/02/28 10:45:17;;;;;;;8.68;7.70;;;;;;;;;;5155300;27;20077;-64
2022/02/28 10:47:48;;;;;;;9.45;7.25;;;;;;;;;;5163736;27;20084;-64
2022/02/28 10:50:40;;;;;;;8.60;7.70;;;;;;;;;;5159103;27;20116;-65
2022/02/28 10:53:11;;;;;;;8.95;7.10;;;;;;;;;;5195726;27;20201;-64
2022/02/28 10:55:37;;;;;;;8.43;7.12;;;;;;;;;;5176212;27;20206;-65
2022/02/28 10:58:14;;;;;;;8.55;7.55;;;;;;;;;;5178697;27;20164;-66
2022/02/28 11:00:50;;;;;;;8.65;7.25;;;;;;;;;;5180943;27;20066;-65
2022/02/28 11:03:16;;;;;;;11.95;7.68;;;;;;;;;;5179883;27;20088;-65
2022/02/28 11:05:57;;;;;;;7.57;6.75;;;;;;;;;;5181017;27;20092;-64
2022/02/28 11:08:25;;;;;;;8.55;7.53;;;;;;;;;;5181037;27;20069;-64
2022/02/28 11:10:54;;;;;;;7.93;7.12;;;;;;;;;;5199735;27;20572;-66
2022/02/28 11:13:21;;;;;;;8.60;7.70;;;;;;;;;;5163632;27;20500;-65
2022/02/28 11:15:49;;;;;;;8.18;7.00;;;;;;;;;;5200194;27;20513;-65
2022/02/28 11:18:20;;;;;;;10.13;8.00;;;;;;;;;;5163344;27;20092;-64
2022/02/28 11:20:55;;;;;;;9.75;7.87;;;;;;;;;;5180965;27;20088;-65
2022/02/28 11:23:24;;;;;;;8.52;7.72;;;;;;;;;;5181430;27;20073;-63
2022/02/28 11:25:50;;;;;;;8.55;7.65;;;;;;;;;;5163079;27;20144;-66
2022/02/28 11:28:19;;;;;;;9.70;7.95;;;;;;;;;;5200205;27;20163;-65
2022/02/28 11:30:45;;;;;;;12.75;7.93;;;;;;;;;;5180907;27;20536;-65
2022/02/28 11:33:16;;;;;;;8.73;7.82;;;;;;;;;;5200539;27;20515;-65
2022/02/28 11:35:49;;;;;;;9.73;8.23;;;;;;;;;;5201232;27;20077;-65
2022/02/28 11:38:15;;;;;;;9.98;8.15;;;;;;;;;;5182423;27;20518;-65
2022/02/28 11:40:43;;;;;;;10.10;8.27;;;;;;;;;;5201770;27;20163;-65
2022/02/28 11:43:11;;;;;;;11.25;8.85;;;;;;;;;;5165130;27;20196;-65
2022/02/28 11:45:48;;;;;;;9.90;8.60;;;;;;;;;;5201653;27;20433;-65
2022/02/28 11:48:28;;;;;;;9.90;8.35;;;;;;;;;;5182659;27;20168;-65
2022/02/28 11:50:56;;;;;;;9.00;8.02;;;;;;;;;;5201622;27;20065;-64
2022/02/28 11:53:37;;;;;;;10.18;9.07;;;;;;;;;;5201452;27;20069;-71
2022/02/28 11:56:23;;;;;;;11.25;8.85;;;;;;;;;;5201613;27;20598;-67
2022/02/28 11:58:58;;;;;;;10.75;9.05;;;;;;;;;;5181909;27;20077;-67
2022/02/28 12:01:37;;;;;;;10.60;9.50;;;;;;;;;;5182540;27;20159;-66
2022/02/28 12:04:27;;;;;;;13.88;9.75;;;;;;;;;;5182335;27;20097;-66
2022/02/28 12:07:14;;;;;;;12.30;9.70;;;;;;;;;;5182337;27;20409;-68
2022/02/28 12:09:45;;;;;;;11.30;9.88;;;;;;;;;;5201337;27;20092;-65
2022/02/28 12:12:34;;;;;;;11.48;9.52;;;;;;;;;;5182654;27;20175;-66
2022/02/28 12:15:00;;;;;;;12.80;9.60;;;;;;;;;;5181880;27;20431;-67
2022/02/28 12:17:34;;;;;;;12.13;9.95;;;;;;;;;;5181281;27;20575;-65
2022/02/28 12:20:21;;;;;;;10.10;9.07;;;;;;;;;;5183173;27;20090;-65
2022/02/28 12:23:05;;;;;;;10.82;9.68;;;;;;;;;;5200671;27;20091;-66
2022/02/28 12:25:37;;;;;;;11.85;10.15;;;;;;;;;;5201137;27;20104;-65
2022/02/28 12:28:32;;;;;;;11.10;10.00;;;;;;;;;;5201378;27;20193;-66
2022/02/28 12:31:18;;;;;;;14.80;10.32;;;;;;;;;;5201515;27;20097;-65
2022/02/28 12:33:44;;;;;;;13.25;9.80;;;;;;;;;;5181629;27;20076;-65
2022/02/28 12:36:32;;;;;;;11.23;9.95;;;;;;;;;;5201222;27;20077;-66
2022/02/28 12:39:03;;;;;;;12.45;10.40;;;;;;;;;;5164590;27;20259;-65
2022/02/28 12:41:35;;;;;;;12.10;10.90;;;;;;;;;;5201400;27;20418;-64
2022/02/28 12:44:04;;;;;;;12.93;10.75;;;;;;;;;;5201009;27;20496;-64
2022/02/28 12:46:32;;;;;;;11.80;9.95;;;;;;;;;;5197862;27;20176;-64
2022/02/28 12:48:59;;;;;;;12.88;10.32;;;;;;;;;;5178255;27;20188;-64
2022/02/28 12:51:28;;;;;;;12.77;11.23;;;;;;;;;;5178800;27;20456;-64
2022/02/28 12:54:11;;;;;;;12.00;10.80;;;;;;;;;;5178696;27;20082;-64
2022/02/28 12:56:54;;;;;;;12.27;10.52;;;;;;;;;;5197919;27;20093;-65
2022/02/28 12:59:20;;;;;;;12.35;11.05;;;;;;;;;;5197671;27;20109;-64
2022/02/28 13:01:46;;;;;;;12.05;10.50;;;;;;;;;;5197926;27;20092;-63
2022/02/28 13:04:14;;;;;;;13.62;10.90;;;;;;;;;;5178218;27;20543;-66
2022/02/28 13:06:43;;;;;;;12.15;10.80;;;;;;;;;;5197771;27;20124;-66
2022/02/28 13:09:13;;;;;;;13.10;11.68;;;;;;;;;;5178523;27;20073;-67
2022/02/28 13:11:44;;;;;;;13.52;11.82;;;;;;;;;;5197741;27;20101;-66
2022/02/28 13:14:11;;;;;;;12.95;11.65;;;;;;;;;;5197628;27;20108;-67
